Terminal Aerodrome Forecast
Issued by NWS

Home | Current Version | Previous Version | Graphics & Text | Print | Product List | Glossary On
Versions: 1 2 3 4 5 6 7 8 9 10 11 12 13 14 15
000
FTUS45 KGGW 271700
TAFSDY
TAF
KSDY 271727Z 2718/2818 02015G22KT P6SM SCT150
     FM280000 01018G24KT P6SM BKN080
     FM280900 36016G22KT P6SM -SHRA OVC050
      AMD LTD TO CLD VIS AND WIND=

USA.gov is the U.S. government's official web portal to all federal, state and local government web resources and services.